createdAt,value
2022-12-15T00:00:23.954Z,26.33
2022-12-15T00:03:08.834Z,26.80
2022-12-15T00:05:53.987Z,26.47
2022-12-15T00:08:38.768Z,25.07
2022-12-15T00:11:24.077Z,26.83
2022-12-15T00:14:09.161Z,26.77
2022-12-15T00:16:53.987Z,22.23
2022-12-15T00:19:38.793Z,22.83
2022-12-15T00:22:24.524Z,23.30
2022-12-15T00:25:09.957Z,28.50
2022-12-15T00:27:54.918Z,25.47
2022-12-15T00:30:39.563Z,25.97
2022-12-15T00:33:31.428Z,26.90
2022-12-15T00:36:17.711Z,25.87
2022-12-15T00:38:44.723Z,25.93
2022-12-15T00:41:16.774Z,27.03
2022-12-15T00:43:43.962Z,28.83
2022-12-15T00:46:29.420Z,25.67
2022-12-15T00:48:56.183Z,25.60
2022-12-15T00:51:43.088Z,29.80
2022-12-15T00:54:29.994Z,26.63
2022-12-15T00:57:15.915Z,28.23
2022-12-15T01:00:02.755Z,23.83
2022-12-15T01:02:49.144Z,24.13
2022-12-15T01:05:34.978Z,25.07
2022-12-15T01:08:23.352Z,22.37
2022-12-15T01:11:09.572Z,31.70
2022-12-15T01:13:55.774Z,27.23
2022-12-15T01:16:42.100Z,29.53
2022-12-15T01:19:28.147Z,30.93
2022-12-15T01:22:04.442Z,25.37
2022-12-15T01:24:39.745Z,24.87
2022-12-15T01:27:14.931Z,26.53
2022-12-15T01:29:45.077Z,28.90
2022-12-15T01:32:14.425Z,26.20
2022-12-15T01:34:45.459Z,28.43
2022-12-15T01:37:16.325Z,25.97
2022-12-15T01:40:06.243Z,28.10
2022-12-15T01:42:42.142Z,27.83
2022-12-15T01:45:31.030Z,29.50
2022-12-15T01:48:24.931Z,27.73
2022-12-15T01:51:07.709Z,28.33
2022-12-15T01:53:46.527Z,27.37
2022-12-15T01:56:23.456Z,27.87
2022-12-15T01:59:00.012Z,29.27
2022-12-15T02:01:31.838Z,31.60
2022-12-15T02:04:08.561Z,31.73
2022-12-15T02:06:51.681Z,29.23
2022-12-15T02:09:27.219Z,29.13
2022-12-15T02:12:04.404Z,28.60
2022-12-15T02:15:05.768Z,28.47
2022-12-15T02:17:57.964Z,26.40
2022-12-15T02:20:44.219Z,28.90
2022-12-15T02:23:48.089Z,27.67
2022-12-15T02:26:55.876Z,25.30
2022-12-15T02:29:49.215Z,32.73
2022-12-15T02:32:41.203Z,27.77
2022-12-15T02:36:01.525Z,27.60
2022-12-15T02:38:34.575Z,24.67
2022-12-15T02:41:29.371Z,27.63
2022-12-15T02:44:30.342Z,29.50
2022-12-15T02:50:40.979Z,31.13
2022-12-15T02:53:55.078Z,27.63
2022-12-15T02:56:37.798Z,28.53
2022-12-15T02:59:14.136Z,26.93
2022-12-15T03:01:46.828Z,26.40
2022-12-15T03:04:16.923Z,27.87
2022-12-15T03:06:43.612Z,27.17
2022-12-15T03:09:10.015Z,33.07
2022-12-15T03:11:37.061Z,32.00
2022-12-15T03:14:03.688Z,30.57
2022-12-15T03:16:30.118Z,31.13
2022-12-15T03:18:56.540Z,29.07
2022-12-15T03:21:22.939Z,32.97
2022-12-15T03:23:49.310Z,29.27
2022-12-15T03:26:16.368Z,30.90
2022-12-15T03:28:42.771Z,30.80
2022-12-15T03:31:09.145Z,29.70
2022-12-15T03:33:35.653Z,28.13
2022-12-15T03:36:02.171Z,30.60
2022-12-15T03:38:28.754Z,27.50
2022-12-15T03:40:55.156Z,30.83
2022-12-15T03:43:21.951Z,25.37
2022-12-15T03:45:48.345Z,25.70
2022-12-15T03:48:14.727Z,25.57
2022-12-15T03:50:41.195Z,27.27
2022-12-15T03:53:12.126Z,28.07
2022-12-15T03:55:54.640Z,27.33
2022-12-15T03:58:29.540Z,29.03
2022-12-15T04:01:28.225Z,29.97
2022-12-15T04:04:00.985Z,26.83
2022-12-15T04:06:30.753Z,30.07
2022-12-15T04:09:07.952Z,23.93
2022-12-15T04:11:42.031Z,28.77
2022-12-15T04:14:19.822Z,26.47
2022-12-15T04:17:27.611Z,26.10
2022-12-15T04:20:12.179Z,33.80
2022-12-15T04:22:51.313Z,30.10
2022-12-15T04:25:44.520Z,28.93
2022-12-15T04:28:32.400Z,26.83
2022-12-15T04:31:36.982Z,25.77
2022-12-15T04:34:27.599Z,33.03
2022-12-15T04:37:26.704Z,26.17
2022-12-15T04:40:18.133Z,27.47
2022-12-15T04:43:15.652Z,25.43
2022-12-15T04:46:04.960Z,31.03
2022-12-15T04:48:51.241Z,26.23
2022-12-15T04:51:48.946Z,28.77
2022-12-15T04:54:33.654Z,23.67
2022-12-15T04:57:18.444Z,28.73
2022-12-15T05:00:03.260Z,26.13
2022-12-15T05:02:48.273Z,32.17
2022-12-15T05:05:34.888Z,29.70
2022-12-15T05:08:19.616Z,27.40
2022-12-15T05:11:04.390Z,29.73
2022-12-15T05:13:49.157Z,26.83
2022-12-15T05:16:33.993Z,32.40
2022-12-15T05:19:18.766Z,28.73
2022-12-15T05:22:03.936Z,33.60
2022-12-15T05:24:49.027Z,29.45
2022-12-15T05:27:34.546Z,26.20
2022-12-15T05:30:19.399Z,30.43
2022-12-15T05:32:45.835Z,27.80
2022-12-15T05:35:16.450Z,30.33
2022-12-15T05:37:42.810Z,27.47
2022-12-15T05:40:09.969Z,28.93
2022-12-15T05:42:36.387Z,27.60
2022-12-15T05:45:02.885Z,29.37
2022-12-15T05:47:29.314Z,29.43
2022-12-15T05:49:55.655Z,30.13
2022-12-15T05:52:22.202Z,30.20
2022-12-15T05:54:56.799Z,30.67
2022-12-15T05:57:30.237Z,27.07
2022-12-15T05:59:57.983Z,27.13
2022-12-15T06:02:38.570Z,30.77
2022-12-15T06:05:14.964Z,25.60
2022-12-15T06:07:50.893Z,29.93
2022-12-15T06:10:24.800Z,26.57
2022-12-15T06:12:52.381Z,25.87
2022-12-15T06:15:19.902Z,29.10
2022-12-15T06:18:13.560Z,32.33
2022-12-15T06:20:46.329Z,26.80
2022-12-15T06:23:22.082Z,35.57
2022-12-15T06:25:53.071Z,29.10
2022-12-15T06:28:24.267Z,24.90
2022-12-15T06:30:59.652Z,27.73
2022-12-15T06:33:29.431Z,26.53
2022-12-15T06:36:12.570Z,30.67
2022-12-15T06:38:44.289Z,26.50
2022-12-15T06:41:23.047Z,30.37
2022-12-15T06:47:05.468Z,32.67
2022-12-15T06:49:33.732Z,25.23
2022-12-15T06:52:04.556Z,32.23
2022-12-15T06:54:30.965Z,30.60
2022-12-15T06:56:57.693Z,34.10
2022-12-15T06:59:24.208Z,30.23
2022-12-15T07:01:50.748Z,29.97
2022-12-15T07:04:17.449Z,27.53
2022-12-15T07:06:43.975Z,26.37
2022-12-15T07:09:16.003Z,26.37
2022-12-15T07:11:42.499Z,26.47
2022-12-15T07:14:09.907Z,25.13
2022-12-15T07:16:36.470Z,27.10
2022-12-15T07:19:03.064Z,28.90
2022-12-15T07:21:29.724Z,25.67
2022-12-15T07:23:57.518Z,28.57
2022-12-15T07:26:24.895Z,28.17
2022-12-15T07:28:51.454Z,27.60
2022-12-15T07:31:18.139Z,25.20
2022-12-15T07:33:44.903Z,27.07
2022-12-15T07:36:11.816Z,28.03
2022-12-15T07:38:38.547Z,27.07
2022-12-15T07:41:07.381Z,24.47
2022-12-15T07:43:35.240Z,30.57
2022-12-15T07:46:02.433Z,28.57
2022-12-15T07:48:29.363Z,30.93
2022-12-15T07:51:07.390Z,35.03
2022-12-15T07:53:37.160Z,25.23
2022-12-15T07:56:08.095Z,24.57
2022-12-15T07:58:35.535Z,28.17
2022-12-15T08:01:07.083Z,26.20
2022-12-15T08:03:34.647Z,30.93
2022-12-15T08:06:14.159Z,27.47
2022-12-15T08:08:41.144Z,26.57
2022-12-15T08:11:10.970Z,31.57
2022-12-15T08:14:01.890Z,30.67
2022-12-15T08:16:25.033Z,30.47
2022-12-15T08:18:51.551Z,30.93
2022-12-15T08:21:19.915Z,29.97
2022-12-15T08:23:53.572Z,29.27
2022-12-15T08:26:30.644Z,27.27
2022-12-15T08:32:34.663Z,34.00
2022-12-15T08:35:31.833Z,30.30
2022-12-15T08:38:06.140Z,30.70
2022-12-15T08:40:56.513Z,32.23
2022-12-15T08:43:47.614Z,29.87
2022-12-15T08:46:25.419Z,29.07
2022-12-15T08:49:03.640Z,36.03
2022-12-15T08:51:37.272Z,29.20
2022-12-15T08:56:58.178Z,30.63
2022-12-15T08:59:31.630Z,31.80
2022-12-15T09:01:59.898Z,35.57
2022-12-15T09:04:27.696Z,34.70
2022-12-15T09:06:57.305Z,30.17
2022-12-15T09:09:25.572Z,28.30
2022-12-15T09:11:59.498Z,32.63
2022-12-15T09:14:30.534Z,27.33
2022-12-15T09:17:04.069Z,29.50
2022-12-15T09:19:45.046Z,33.30
2022-12-15T09:22:12.779Z,30.10
2022-12-15T09:24:39.163Z,29.30
2022-12-15T09:27:05.503Z,30.47
2022-12-15T09:29:33.055Z,29.87
2022-12-15T09:31:59.747Z,31.73
2022-12-15T09:34:26.206Z,29.23
2022-12-15T09:36:52.616Z,28.47
2022-12-15T09:39:19.391Z,35.30
2022-12-15T09:41:54.916Z,26.63
2022-12-15T09:44:24.496Z,30.23
2022-12-15T09:47:12.397Z,31.47
2022-12-15T09:49:52.273Z,31.80
2022-12-15T09:52:35.460Z,33.47
2022-12-15T09:55:05.263Z,23.63
2022-12-15T09:57:46.760Z,27.07
2022-12-15T10:00:21.840Z,30.77
2022-12-15T10:03:26.266Z,27.53
2022-12-15T10:06:33.527Z,30.03
2022-12-15T10:09:17.301Z,30.20
2022-12-15T10:11:54.873Z,25.87
2022-12-15T10:14:44.049Z,26.43
2022-12-15T10:17:43.628Z,24.67
2022-12-15T10:20:23.035Z,25.93
2022-12-15T10:22:50.338Z,26.60
2022-12-15T10:25:29.675Z,24.90
2022-12-15T10:28:20.906Z,22.50
2022-12-15T10:31:18.053Z,26.87
2022-12-15T10:33:50.712Z,31.10
2022-12-15T10:36:17.416Z,28.03
2022-12-15T10:38:47.481Z,28.20
2022-12-15T10:41:25.910Z,29.70
2022-12-15T10:43:54.197Z,27.87
2022-12-15T10:46:23.826Z,29.13
2022-12-15T10:48:52.803Z,34.63
2022-12-15T10:51:30.769Z,30.77
2022-12-15T10:54:00.166Z,23.03
2022-12-15T10:56:33.205Z,28.20
2022-12-15T10:59:21.094Z,25.13
2022-12-15T11:01:47.656Z,28.73
2022-12-15T11:04:31.962Z,24.80
2022-12-15T11:07:02.437Z,26.97
2022-12-15T11:09:38.675Z,24.13
2022-12-15T11:12:45.890Z,35.17
2022-12-15T11:15:24.255Z,28.17
2022-12-15T11:18:24.267Z,29.93
2022-12-15T11:21:23.263Z,30.70
2022-12-15T11:31:06.882Z,30.40
2022-12-15T11:33:58.464Z,23.30
2022-12-15T11:36:47.414Z,27.67
2022-12-15T11:40:04.501Z,31.87
2022-12-15T11:42:55.677Z,31.53
2022-12-15T11:45:43.130Z,55.87
2022-12-15T11:51:50.963Z,26.43
2022-12-15T11:52:51.570Z,31.43
2022-12-15T11:54:21.509Z,28.77
2022-12-15T11:57:52.625Z,31.10
2022-12-15T12:00:34.430Z,32.80
2022-12-15T12:03:43.460Z,28.10
2022-12-15T12:06:49.131Z,26.30
2022-12-15T12:09:35.336Z,26.97
2022-12-15T12:12:22.765Z,28.03
2022-12-15T12:15:19.385Z,29.23
2022-12-15T12:17:54.675Z,27.90
2022-12-15T12:20:33.729Z,30.93
2022-12-15T12:23:24.198Z,28.13
2022-12-15T12:26:16.944Z,30.63
2022-12-15T12:28:54.440Z,26.37
2022-12-15T12:31:51.714Z,23.83
2022-12-15T12:34:26.865Z,29.97
2022-12-15T12:36:55.189Z,26.83
2022-12-15T12:39:24.816Z,24.10
2022-12-15T12:42:10.249Z,27.00
2022-12-15T12:44:38.339Z,27.43
2022-12-15T12:47:16.836Z,28.73
2022-12-15T12:49:52.089Z,32.20
2022-12-15T12:52:28.223Z,27.90
2022-12-15T12:55:03.242Z,30.37
2022-12-15T12:57:37.966Z,25.70
2022-12-15T13:00:24.610Z,25.77
2022-12-15T13:03:16.493Z,27.60
2022-12-15T13:05:44.731Z,23.23
2022-12-15T13:08:14.847Z,23.77
2022-12-15T13:10:47.427Z,23.30
2022-12-15T13:13:48.512Z,28.47
2022-12-15T13:16:26.067Z,27.33
2022-12-15T13:19:08.620Z,28.07
2022-12-15T13:21:55.793Z,24.73
2022-12-15T13:24:41.333Z,28.13
2022-12-15T13:27:11.312Z,25.37
2022-12-15T13:30:00.946Z,25.60
2022-12-15T13:32:39.094Z,31.07
2022-12-15T13:35:29.535Z,22.60
2022-12-15T13:38:04.113Z,27.17
2022-12-15T13:40:36.523Z,22.53
2022-12-15T13:43:05.991Z,29.93
2022-12-15T13:45:51.954Z,27.00
2022-12-15T13:48:35.000Z,33.93
2022-12-15T13:51:12.287Z,24.23
2022-12-15T13:53:43.639Z,26.93
2022-12-15T13:56:09.927Z,25.77
2022-12-15T13:58:50.858Z,27.67
2022-12-15T14:01:32.224Z,25.77
2022-12-15T14:04:15.376Z,28.37
2022-12-15T14:06:59.964Z,26.43
2022-12-15T14:09:33.805Z,26.23
2022-12-15T14:12:02.501Z,23.30
2022-12-15T14:14:34.729Z,23.83
2022-12-15T14:17:03.950Z,25.43
2022-12-15T14:19:44.954Z,25.90
2022-12-15T14:22:30.531Z,24.43
2022-12-15T14:25:03.927Z,25.63
2022-12-15T14:27:33.034Z,25.37
2022-12-15T14:30:14.632Z,27.10
2022-12-15T14:32:45.823Z,32.00
2022-12-15T14:35:27.980Z,28.60
2022-12-15T14:37:56.884Z,31.33
2022-12-15T14:40:28.976Z,25.60
2022-12-15T14:42:56.060Z,28.53
2022-12-15T14:45:26.830Z,28.93
2022-12-15T14:50:49.166Z,29.87
2022-12-15T14:53:20.941Z,26.43
2022-12-15T14:55:48.971Z,27.87
2022-12-15T14:58:29.459Z,28.93
2022-12-15T15:00:56.590Z,23.73
2022-12-15T15:03:42.009Z,23.50
2022-12-15T15:06:11.183Z,24.90
2022-12-15T15:08:52.664Z,22.97
2022-12-15T15:11:30.858Z,25.30
2022-12-15T15:14:02.556Z,21.37
2022-12-15T15:16:29.163Z,25.10
2022-12-15T15:18:57.034Z,23.17
2022-12-15T15:21:26.436Z,25.00
2022-12-15T15:24:04.726Z,24.93
2022-12-15T15:26:31.709Z,24.87
2022-12-15T15:28:58.607Z,26.63
2022-12-15T15:31:25.207Z,20.93
2022-12-15T15:33:52.737Z,24.63
2022-12-15T15:36:19.235Z,20.47
2022-12-15T15:38:46.933Z,24.43
2022-12-15T15:41:16.138Z,22.23
2022-12-15T15:43:43.382Z,21.03
2022-12-15T15:46:16.199Z,20.53
2022-12-15T15:48:47.434Z,19.40
2022-12-15T15:51:14.229Z,22.80
2022-12-15T15:53:41.094Z,20.13
2022-12-15T15:56:10.741Z,18.83
2022-12-15T15:58:37.319Z,20.03
2022-12-15T16:01:09.594Z,20.57
2022-12-15T16:03:39.413Z,21.53
2022-12-15T16:06:14.122Z,18.23
2022-12-15T16:08:40.608Z,18.93
2022-12-15T16:11:12.091Z,20.43
2022-12-15T16:13:39.215Z,19.33
2022-12-15T16:16:06.412Z,19.60
2022-12-15T16:18:33.114Z,17.37
2022-12-15T16:20:59.854Z,18.80
2022-12-15T16:23:28.477Z,21.37
2022-12-15T16:25:57.925Z,18.07
2022-12-15T16:28:29.699Z,18.93
2022-12-15T16:31:01.523Z,19.87
2022-12-15T16:33:28.296Z,19.37
2022-12-15T16:35:54.960Z,19.77
2022-12-15T16:38:31.972Z,19.90
2022-12-15T16:41:05.509Z,22.50
2022-12-15T16:43:37.236Z,21.13
2022-12-15T16:46:06.202Z,23.00
2022-12-15T16:48:33.163Z,21.97
2022-12-15T16:50:59.975Z,19.20
2022-12-15T16:53:33.080Z,25.07
2022-12-15T16:56:02.878Z,22.57
2022-12-15T16:58:30.898Z,21.23
2022-12-15T17:00:58.325Z,21.10
2022-12-15T17:03:28.216Z,21.93
2022-12-15T17:05:58.729Z,18.73
2022-12-15T17:08:38.292Z,22.83
2022-12-15T17:11:04.923Z,20.53
2022-12-15T17:13:45.630Z,20.67
2022-12-15T17:16:15.824Z,22.67
2022-12-15T17:18:44.476Z,21.43
2022-12-15T17:21:26.487Z,18.60
2022-12-15T17:24:00.575Z,18.90
2022-12-15T17:26:30.682Z,27.33
2022-12-15T17:29:01.470Z,21.87
2022-12-15T17:31:34.797Z,20.10
2022-12-15T17:34:21.993Z,23.77
2022-12-15T17:36:48.401Z,21.80
2022-12-15T17:39:16.663Z,17.13
2022-12-15T17:41:59.487Z,21.83
2022-12-15T17:44:38.598Z,16.40
2022-12-15T17:47:07.936Z,23.10
2022-12-15T17:49:37.737Z,21.50
2022-12-15T17:52:15.682Z,24.20
2022-12-15T17:54:42.161Z,20.13
2022-12-15T17:57:12.092Z,20.33
2022-12-15T17:59:38.495Z,18.83
2022-12-15T18:02:05.039Z,21.53
2022-12-15T18:04:31.491Z,23.23
2022-12-15T18:07:01.684Z,22.73
2022-12-15T18:09:28.704Z,22.00
2022-12-15T18:11:55.186Z,21.70
2022-12-15T18:14:22.893Z,21.67
2022-12-15T18:16:49.804Z,26.73
2022-12-15T18:19:16.258Z,24.33
2022-12-15T18:21:42.877Z,23.07
2022-12-15T18:24:17.572Z,25.70
2022-12-15T18:26:44.210Z,21.47
2022-12-15T18:29:17.651Z,22.00
2022-12-15T18:31:46.829Z,21.77
2022-12-15T18:34:16.248Z,23.37
2022-12-15T18:36:43.008Z,20.17
2022-12-15T18:39:18.532Z,20.77
2022-12-15T18:41:46.118Z,25.33
2022-12-15T18:44:23.898Z,19.33
2022-12-15T18:46:50.547Z,21.27
2022-12-15T18:49:18.668Z,21.77
2022-12-15T18:51:46.920Z,24.47
2022-12-15T18:54:19.238Z,20.30
2022-12-15T18:56:45.824Z,16.67
2022-12-15T18:59:17.095Z,18.40
2022-12-15T19:01:45.766Z,20.70
2022-12-15T19:04:12.820Z,17.67
2022-12-15T19:06:40.796Z,21.47
2022-12-15T19:09:16.697Z,24.47
2022-12-15T19:12:06.374Z,20.30
2022-12-15T19:14:50.620Z,24.37
2022-12-15T19:17:41.390Z,18.63
2022-12-15T19:20:37.593Z,18.63
2022-12-15T19:23:05.533Z,16.90
2022-12-15T19:25:32.437Z,22.53
2022-12-15T19:28:00.375Z,19.43
2022-12-15T19:30:30.367Z,24.33
2022-12-15T19:32:57.403Z,23.37
2022-12-15T19:35:24.749Z,20.00
2022-12-15T19:37:54.971Z,22.50
2022-12-15T19:40:27.370Z,19.07
2022-12-15T19:42:55.604Z,21.80
2022-12-15T19:45:27.949Z,21.17
2022-12-15T19:47:55.131Z,23.83
2022-12-15T19:50:24.460Z,23.87
2022-12-15T19:52:54.785Z,23.03
2022-12-15T19:55:25.873Z,20.97
2022-12-15T19:57:52.479Z,23.80
2022-12-15T20:00:21.965Z,23.63
2022-12-15T20:02:54.740Z,21.17
2022-12-15T20:05:24.002Z,22.90
2022-12-15T20:07:52.449Z,21.67
2022-12-15T20:10:27.688Z,20.77
2022-12-15T20:12:58.640Z,19.70
2022-12-15T20:15:26.058Z,24.07
2022-12-15T20:17:57.246Z,21.53
2022-12-15T20:20:27.161Z,23.67
2022-12-15T20:22:56.495Z,20.93
2022-12-15T20:25:27.570Z,22.73
2022-12-15T20:27:54.357Z,24.57
2022-12-15T20:30:32.318Z,21.40
2022-12-15T20:33:00.717Z,21.77
2022-12-15T20:35:27.226Z,21.73
2022-12-15T20:37:53.598Z,18.13
2022-12-15T20:40:25.065Z,22.00
2022-12-15T20:42:52.862Z,20.90
2022-12-15T20:45:22.494Z,22.20
2022-12-15T20:47:51.672Z,22.77
2022-12-15T20:50:37.504Z,20.07
2022-12-15T20:53:06.992Z,21.80
2022-12-15T20:55:34.138Z,21.10
2022-12-15T20:58:01.021Z,21.87
2022-12-15T21:00:29.798Z,21.47
2022-12-15T21:02:56.844Z,18.93
2022-12-15T21:05:25.941Z,24.60
2022-12-15T21:07:53.235Z,22.73
2022-12-15T21:10:21.144Z,21.97
2022-12-15T21:12:49.804Z,24.57
2022-12-15T21:15:20.576Z,22.97
2022-12-15T21:17:57.912Z,20.30
2022-12-15T21:20:36.117Z,24.03
2022-12-15T21:23:02.962Z,23.23
2022-12-15T21:25:30.046Z,21.10
2022-12-15T21:27:56.887Z,20.20
2022-12-15T21:30:23.962Z,21.80
2022-12-15T21:32:51.061Z,27.10
2022-12-15T21:35:19.661Z,17.17
2022-12-15T21:37:51.710Z,24.13
2022-12-15T21:40:24.213Z,18.77
2022-12-15T21:42:51.151Z,20.20
2022-12-15T21:45:20.191Z,25.80
2022-12-15T21:48:07.107Z,21.97
2022-12-15T21:50:34.172Z,18.40
2022-12-15T21:53:01.733Z,23.80
2022-12-15T21:55:29.628Z,19.87
2022-12-15T21:57:57.420Z,18.70
2022-12-15T22:00:24.894Z,18.83
2022-12-15T22:02:53.450Z,22.90
2022-12-15T22:05:22.847Z,18.50
2022-12-15T22:07:49.958Z,20.27
2022-12-15T22:10:18.095Z,21.27
2022-12-15T22:12:53.400Z,22.83
2022-12-15T22:15:26.505Z,21.90
2022-12-15T22:17:53.039Z,21.47
2022-12-15T22:20:21.751Z,19.93
2022-12-15T22:22:48.496Z,21.37
2022-12-15T22:25:19.126Z,24.07
2022-12-15T22:27:46.359Z,23.73
2022-12-15T22:30:26.779Z,23.13
2022-12-15T22:32:53.905Z,24.93
2022-12-15T22:35:23.696Z,17.00
2022-12-15T22:37:53.412Z,25.53
2022-12-15T22:40:21.474Z,22.00
2022-12-15T22:42:52.099Z,20.97
2022-12-15T22:45:21.198Z,23.60
2022-12-15T22:47:49.274Z,21.37
2022-12-15T22:50:22.103Z,22.87
2022-12-15T22:52:48.551Z,20.63
2022-12-15T22:55:16.676Z,24.43
2022-12-15T22:57:53.057Z,26.43
2022-12-15T23:00:19.478Z,20.93
2022-12-15T23:02:47.172Z,27.13
2022-12-15T23:05:17.035Z,27.80
2022-12-15T23:07:44.318Z,28.40
2022-12-15T23:10:32.898Z,14.57
2022-12-15T23:12:59.342Z,22.43
2022-12-15T23:15:46.973Z,20.80
2022-12-15T23:18:13.653Z,18.27
2022-12-15T23:20:40.391Z,25.73
2022-12-15T23:23:07.153Z,24.70
2022-12-15T23:25:33.828Z,27.83
2022-12-15T23:28:00.226Z,22.90
2022-12-15T23:30:26.781Z,22.53
2022-12-15T23:32:55.193Z,23.57
2022-12-15T23:35:22.395Z,29.10
2022-12-15T23:37:49.063Z,23.17
2022-12-15T23:40:21.197Z,26.63
2022-12-15T23:42:51.306Z,26.13
2022-12-15T23:45:19.743Z,26.57
2022-12-15T23:47:46.384Z,23.13
2022-12-15T23:50:12.861Z,22.47
2022-12-15T23:52:39.297Z,19.00
2022-12-15T23:55:09.873Z,24.80
2022-12-15T23:57:45.109Z,25.77
